Time;durP1;ratioP1;P1;durP2;ratioP2;P2;SDS_P1;SDS_P2;PMS_P1;PMS_P2;Temp;Humidity;BMP_temperature;BMP_pressure;BME280_temperature;BME280_humidity;BME280_pressure;Samples;Min_cycle;Max_cycle;Signal;HPM_P1;HPM_P2
2021/08/09 00:00:14;;;;;;;20.38;8.50;;;;;;;16.48;76.54;99650.56;129885;1092;22609;-64
2021/08/09 00:02:43;;;;;;;19.18;8.40;;;;;;;16.49;76.53;99643.13;129733;1093;114145;-61
2021/08/09 00:05:17;;;;;;;14.75;8.08;;;;;;;16.47;76.46;99654.42;129802;1092;22545;-61
2021/08/09 00:07:46;;;;;;;17.63;8.48;;;;;;;16.47;76.40;99651.67;129709;1092;114236;-62
2021/08/09 00:10:15;;;;;;;19.35;9.43;;;;;;;16.48;76.55;99646.98;129761;1093;22586;-62
2021/08/09 00:13:04;;;;;;;11.98;8.68;;;;;;;16.47;76.22;99650.85;129804;1092;22578;-61
2021/08/09 00:15:34;;;;;;;16.55;8.53;;;;;;;16.45;76.16;99636.57;129732;1093;114031;-61
2021/08/09 00:18:24;;;;;;;13.55;8.08;;;;;;;16.42;76.16;99643.50;129833;1092;22643;-61
2021/08/09 00:21:04;;;;;;;15.03;8.68;;;;;;;16.41;76.27;99641.05;129639;1092;114204;-61
2021/08/09 00:23:53;;;;;;;13.30;8.90;;;;;;;16.37;76.15;99643.55;129810;1092;22588;-61
2021/08/09 00:26:22;;;;;;;16.60;9.50;;;;;;;16.36;76.31;99643.84;129728;1092;114145;-61
2021/08/09 00:28:57;;;;;;;15.73;9.55;;;;;;;16.34;76.59;99640.56;129810;1092;22558;-61
2021/08/09 00:31:27;;;;;;;14.18;9.25;;;;;;;16.31;76.12;99630.14;129706;1092;113722;-61
2021/08/09 00:34:06;;;;;;;17.38;10.45;;;;;;;16.28;76.35;99637.07;129814;1092;23427;-61
2021/08/09 00:36:35;;;;;;;17.33;10.00;;;;;;;16.28;76.54;99630.75;129801;1092;22514;-62
2021/08/09 00:39:08;;;;;;;22.20;11.40;;;;;;;16.29;76.76;99630.46;129654;1093;113863;-60
2021/08/09 00:41:38;;;;;;;16.10;9.85;;;;;;;16.31;76.66;99624.64;129746;1092;23100;-62
2021/08/09 00:44:07;;;;;;;15.80;10.15;;;;;;;16.32;76.46;99620.78;129659;1093;115052;-62
2021/08/09 00:46:36;;;;;;;20.83;9.68;;;;;;;16.31;76.09;99614.46;129754;1092;22624;-61
2021/08/09 00:49:06;;;;;;;22.25;11.08;;;;;;;16.31;76.07;99619.14;129797;1093;23601;-62
2021/08/09 00:51:36;;;;;;;20.38;10.33;;;;;;;16.26;76.07;99626.36;129708;1092;114994;-61
2021/08/09 00:54:10;;;;;;;16.70;10.28;;;;;;;16.21;75.96;99625.59;129802;1092;23020;-61
2021/08/09 00:56:41;;;;;;;20.10;9.88;;;;;;;16.19;76.31;99630.55;129689;1093;114405;-61
2021/08/09 00:59:10;;;;;;;18.68;10.05;;;;;;;16.15;76.19;99630.34;129783;1093;22535;-61
2021/08/09 01:01:41;;;;;;;16.28;9.65;;;;;;;16.11;76.40;99628.46;129646;1093;114388;-60
2021/08/09 01:04:11;;;;;;;17.55;9.60;;;;;;;16.10;76.38;99621.33;129777;1092;22592;-61
2021/08/09 01:06:43;;;;;;;16.60;9.65;;;;;;;16.07;76.45;99619.16;129759;1093;22621;-61
2021/08/09 01:09:26;;;;;;;21.65;9.88;;;;;;;16.06;76.67;99623.01;129652;1093;114326;-61
2021/08/09 01:12:27;;;;;;;20.98;10.58;;;;;;;16.02;76.53;99614.52;129795;1093;22561;-61
2021/08/09 01:15:13;;;;;;;26.20;10.55;;;;;;;15.98;76.66;99609.92;129735;1092;114227;-61
2021/08/09 01:17:46;;;;;;;20.50;10.80;;;;;;;15.94;76.88;99608.85;129757;1092;22562;-62
2021/08/09 01:20:37;;;;;;;21.30;9.70;;;;;;;15.93;77.25;99612.71;129680;1093;114169;-61
2021/08/09 01:23:33;;;;;;;18.48;9.80;;;;;;;15.89;77.25;99616.03;129786;1092;22547;-62
2021/08/09 01:26:24;;;;;;;22.05;9.73;;;;;;;15.86;77.49;99604.83;129650;1093;114100;-61
2021/08/09 01:28:56;;;;;;;17.80;10.20;;;;;;;15.82;77.36;99610.08;129795;1093;23290;-60
2021/08/09 01:31:29;;;;;;;17.28;10.30;;;;;;;15.81;77.40;99604.88;129631;1093;114629;-61
2021/08/09 01:33:58;;;;;;;21.05;10.45;;;;;;;15.77;77.55;99610.11;129763;1093;23155;-61
2021/08/09 01:36:28;;;;;;;22.43;10.98;;;;;;;15.75;77.82;99606.84;129827;1093;23153;-62
2021/08/09 01:38:57;;;;;;;21.90;11.05;;;;;;;15.73;77.83;99603.55;129667;1093;114564;-61
2021/08/09 01:41:26;;;;;;;18.83;11.45;;;;;;;15.71;77.81;99600.30;129784;1093;22586;-66
2021/08/09 01:43:58;;;;;;;21.00;11.28;;;;;;;15.70;78.23;99604.16;129688;1093;114719;-66
2021/08/09 01:46:27;;;;;;;23.00;11.90;;;;;;;15.68;78.18;99600.88;129772;1093;22548;-66
2021/08/09 01:48:57;;;;;;;18.95;12.05;;;;;;;15.67;78.53;99601.98;129769;1093;22522;-67
2021/08/09 01:51:26;;;;;;;27.60;12.35;;;;;;;15.66;78.67;99599.52;129659;1093;115368;-66
2021/08/09 01:53:57;;;;;;;27.48;12.50;;;;;;;15.65;78.97;99606.94;129748;1093;22562;-66
2021/08/09 01:56:26;;;;;;;24.30;12.53;;;;;;;15.67;78.88;99601.98;129667;1093;114128;-66
2021/08/09 01:58:55;;;;;;;24.03;11.95;;;;;;;15.66;78.78;99608.58;129776;1093;22514;-66
2021/08/09 02:01:26;;;;;;;21.98;12.63;;;;;;;15.65;78.76;99601.45;129679;1093;114317;-66
2021/08/09 02:03:57;;;;;;;23.13;13.98;;;;;;;15.63;78.80;99608.34;129827;1092;23719;-67
2021/08/09 02:06:26;;;;;;;24.25;14.23;;;;;;;15.61;78.83;99616.86;129792;1093;22539;-67
2021/08/09 02:08:57;;;;;;;21.05;13.25;;;;;;;15.60;78.77;99612.47;129683;1092;114202;-67
2021/08/09 02:12:04;;;;;;;25.25;12.93;;;;;;;15.60;79.41;99609.73;129711;1093;22602;-67
2021/08/09 02:14:36;;;;;;;29.00;14.18;;;;;;;15.61;79.68;99608.63;129682;1093;114416;-67
2021/08/09 02:17:13;;;;;;;24.28;12.33;;;;;;;15.61;79.56;99616.04;129766;1092;22571;-67
2021/08/09 02:20:01;;;;;;;24.08;13.55;;;;;;;15.59;79.79;99612.76;129573;1095;114784;-67
2021/08/09 02:22:43;;;;;;;18.08;11.58;;;;;;;15.59;79.83;99615.50;129749;1096;22501;-68
2021/08/09 02:25:16;;;;;;;25.78;12.73;;;;;;;15.57;79.57;99615.00;129439;1096;22617;-67
2021/08/09 02:27:50;;;;;;;23.23;12.50;;;;;;;15.56;79.61;99611.44;129637;1096;113810;-67
2021/08/09 02:30:20;;;;;;;19.43;11.60;;;;;;;15.57;79.66;99617.75;129742;1096;22594;-67
2021/08/09 02:32:52;;;;;;;23.45;12.28;;;;;;;15.58;79.46;99619.39;129656;1095;114145;-68
2021/08/09 02:35:21;;;;;;;22.25;12.40;;;;;;;15.56;79.12;99619.67;129752;1096;22531;-67
2021/08/09 02:37:52;;;;;;;25.63;13.98;;;;;;;15.53;79.07;99622.95;129294;1096;114313;-67
2021/08/09 02:40:20;;;;;;;25.25;14.60;;;;;;;15.50;79.48;99618.86;129757;1095;22543;-57
2021/08/09 02:42:49;;;;;;;19.38;12.53;;;;;;;15.51;79.56;99623.24;129717;1095;23770;-57
2021/08/09 02:45:19;;;;;;;21.55;13.55;;;;;;;15.50;79.66;99620.78;129640;1096;114298;-57
2021/08/09 02:47:49;;;;;;;20.98;13.78;;;;;;;15.50;79.71;99624.34;129769;1095;23533;-57
2021/08/09 02:50:18;;;;;;;24.65;13.53;;;;;;;15.50;79.71;99618.03;129628;1093;114223;-57
2021/08/09 02:52:47;;;;;;;19.23;12.10;;;;;;;15.47;79.47;99616.68;129805;1093;23308;-57
2021/08/09 02:55:17;;;;;;;22.75;14.98;;;;;;;15.46;79.58;99619.70;129801;1093;22583;-57
2021/08/09 02:57:47;;;;;;;21.93;13.15;;;;;;;15.46;79.64;99619.70;130047;1090;114066;-57
2021/08/09 03:00:16;;;;;;;20.58;11.83;;;;;;;15.46;79.75;99623.27;130140;1089;22622;-57
2021/08/09 03:02:45;;;;;;;20.28;12.90;;;;;;;15.44;79.56;99619.17;130011;1090;114504;-57
2021/08/09 03:05:16;;;;;;;23.30;14.20;;;;;;;15.46;79.94;99619.70;130133;1090;23478;-57
2021/08/09 03:07:45;;;;;;;20.38;12.55;;;;;;;15.48;80.28;99633.97;129997;1090;114307;-57
2021/08/09 03:10:34;;;;;;;20.15;13.23;;;;;;;15.51;80.51;99634.23;130119;1090;22594;-57
2021/08/09 03:13:10;;;;;;;23.13;13.00;;;;;;;15.56;80.37;99627.91;130125;1090;23031;-58
2021/08/09 03:15:41;;;;;;;21.13;13.00;;;;;;;15.58;80.62;99628.45;129947;1090;117162;-57
2021/08/09 03:18:10;;;;;;;20.73;13.18;;;;;;;15.62;80.75;99640.47;130167;1090;22548;-57
2021/08/09 03:20:39;;;;;;;23.40;13.18;;;;;;;15.69;80.97;99635.48;130291;1090;114137;-57
2021/08/09 03:23:08;;;;;;;30.78;13.88;;;;;;;15.78;81.17;99638.41;130119;1090;22598;-57
2021/08/09 03:25:37;;;;;;;36.95;14.10;;;;;;;15.89;81.15;99646.26;130034;1089;114355;-57
2021/08/09 03:28:06;;;;;;;31.40;14.70;;;;;;;16.01;81.07;99640.39;130130;1090;23375;-57
2021/08/09 03:30:35;;;;;;;35.30;15.18;;;;;;;16.15;81.03;99643.27;130136;1090;23454;-57
2021/08/09 03:35:08;;;;;;;33.15;15.50;;;;;;;16.46;80.85;99655.53;125710;1092;22796;-58
2021/08/09 03:37:37;;;;;;;30.60;15.98;;;;;;;16.64;80.50;99650.41;125388;1093;114002;-58
2021/08/09 03:40:13;;;;;;;33.85;16.28;;;;;;;16.78;80.00;99645.81;129948;1093;22619;-58
2021/08/09 03:42:41;;;;;;;36.83;16.55;;;;;;;16.88;79.71;99651.20;129891;1093;22564;-59
2021/08/09 03:45:11;;;;;;;42.50;16.98;;;;;;;16.95;79.52;99657.96;129732;1093;113988;-56
2021/08/09 03:47:40;;;;;;;33.35;16.20;;;;;;;17.03;79.48;99655.64;129831;1093;23395;-59
2021/08/09 03:50:09;;;;;;;28.55;14.75;;;;;;;17.09;79.54;99647.02;129825;1092;114215;-58
2021/08/09 03:52:48;;;;;;;33.18;17.05;;;;;;;17.18;79.66;99647.16;129807;1092;23395;-59
2021/08/09 03:55:18;;;;;;;38.73;16.98;;;;;;;17.25;79.46;99645.69;129849;1092;22538;-59
2021/08/09 03:57:47;;;;;;;39.30;16.28;;;;;;;17.34;79.55;99640.30;129726;1093;113552;-58
2021/08/09 04:00:16;;;;;;;35.93;16.70;;;;;;;17.42;79.55;99647.09;129816;1093;23405;-57
2021/08/09 04:02:45;;;;;;;30.75;15.95;;;;;;;17.48;79.45;99638.42;129674;1093;114330;-57
2021/08/09 04:05:21;;;;;;;34.40;15.90;;;;;;;17.58;79.38;99641.03;129770;1093;23237;-57
2021/08/09 04:07:51;;;;;;;40.98;19.08;;;;;;;17.66;79.20;99632.09;129732;1093;114006;-57
2021/08/09 04:10:20;;;;;;;66.75;32.50;;;;;;;17.74;78.65;99636.11;129864;1092;22583;-57
2021/08/09 04:12:51;;;;;;;80.48;37.63;;;;;;;17.84;78.20;99637.86;129756;1092;23377;-57
2021/08/09 04:15:41;;;;;;;87.13;39.03;;;;;;;17.94;77.76;99640.42;129700;1091;114414;-57
2021/08/09 04:18:10;;;;;;;77.60;36.53;;;;;;;18.03;77.28;99633.10;129784;1092;23146;-57
2021/08/09 04:20:39;;;;;;;76.25;35.18;;;;;;;18.13;76.83;99635.66;129733;1093;114468;-57
2021/08/09 04:23:08;;;;;;;73.23;33.43;;;;;;;18.22;76.63;99635.75;129792;1093;22537;-56
2021/08/09 04:25:37;;;;;;;61.20;30.68;;;;;;;18.32;76.46;99643.85;129741;1093;114027;-57
2021/08/09 04:28:06;;;;;;;65.05;31.68;;;;;;;18.41;76.10;99644.76;129791;1093;23326;-57
2021/08/09 04:30:36;;;;;;;60.85;28.83;;;;;;;18.51;76.07;99639.03;129810;1093;22541;-57
2021/08/09 04:33:05;;;;;;;43.10;25.95;;;;;;;18.61;75.98;99638.05;129682;1093;114547;-57
2021/08/09 04:35:54;;;;;;;54.30;25.35;;;;;;;18.71;75.96;99635.88;129770;1091;22567;-57
2021/08/09 04:38:23;;;;;;;42.23;23.73;;;;;;;18.82;75.40;99632.89;129713;1092;113815;-57
2021/08/09 04:40:52;;;;;;;43.00;21.55;;;;;;;18.93;75.20;99635.11;129778;1093;22639;-57
2021/08/09 04:43:21;;;;;;;36.93;20.70;;;;;;;19.03;74.97;99637.66;129755;1093;22712;-57
2021/08/09 04:45:50;;;;;;;37.90;20.63;;;;;;;19.14;74.66;99629.13;129691;1093;113832;-56
2021/08/09 04:48:20;;;;;;;34.90;19.70;;;;;;;19.24;74.19;99639.94;129756;1092;22554;-57
2021/08/09 04:50:49;;;;;;;29.65;18.30;;;;;;;19.34;74.02;99637.73;129705;1092;114150;-57
2021/08/09 04:53:19;;;;;;;31.30;16.40;;;;;;;19.47;73.85;99643.55;129828;1092;23389;-57
2021/08/09 04:55:57;;;;;;;36.55;17.50;;;;;;;19.64;73.39;99649.20;129696;1092;116522;-57
2021/08/09 04:58:27;;;;;;;26.83;14.60;;;;;;;19.84;72.92;99651.46;129625;1093;23418;-57
2021/08/09 05:00:56;;;;;;;24.40;14.03;;;;;;;20.10;72.29;99657.95;129796;1093;22515;-57
2021/08/09 05:03:26;;;;;;;27.65;14.00;;;;;;;20.48;71.43;99659.47;129705;1093;113897;-56
2021/08/09 05:05:56;;;;;;;29.23;15.15;;;;;;;20.91;70.91;99660.41;129809;1093;22612;-57
2021/08/09 05:08:26;;;;;;;30.48;13.10;;;;;;;21.39;69.13;99654.75;129673;1093;114427;-57
2021/08/09 05:10:55;;;;;;;29.80;13.25;;;;;;;21.87;67.73;99640.67;129747;1093;22551;-56
2021/08/09 05:13:40;;;;;;;34.63;11.53;;;;;;;22.37;66.06;99640.02;129640;1091;114283;-57
2021/08/09 05:16:09;;;;;;;24.05;11.25;;;;;;;22.84;64.59;99646.34;129796;1092;23362;-57
2021/08/09 05:18:42;;;;;;;32.30;11.18;;;;;;;23.29;62.95;99640.14;129787;1093;22532;-57
2021/08/09 05:21:15;;;;;;;32.35;11.15;;;;;;;23.74;61.87;99637.48;129649;1093;114007;-57
2021/08/09 05:23:45;;;;;;;17.08;8.88;;;;;;;24.19;59.89;99639.45;129811;1093;22583;-58
2021/08/09 05:26:14;;;;;;;13.95;8.68;;;;;;;24.60;58.52;99636.48;129677;1093;113971;-58
2021/08/09 05:28:43;;;;;;;17.15;9.30;;;;;;;24.99;56.64;99643.32;129789;1093;23560;-58
2021/08/09 05:31:12;;;;;;;17.83;8.35;;;;;;;25.40;55.82;99651.70;129848;1093;22545;-58
2021/08/09 05:33:41;;;;;;;16.85;7.90;;;;;;;25.78;54.91;99646.48;129669;1093;113885;-57
2021/08/09 05:36:10;;;;;;;12.68;8.23;;;;;;;26.20;52.94;99646.00;129779;1093;22557;-57
2021/08/09 05:38:51;;;;;;;10.33;6.55;;;;;;;26.59;51.36;99636.65;129758;1093;113713;-57
2021/08/09 05:41:21;;;;;;;16.35;7.35;;;;;;;26.97;50.35;99632.39;129768;1093;23437;-57
2021/08/09 05:43:51;;;;;;;12.73;7.70;;;;;;;27.29;49.32;99633.08;129660;1092;114100;-57
2021/08/09 05:46:21;;;;;;;13.85;6.95;;;;;;;27.55;47.97;99629.64;129814;1092;22540;-57
2021/08/09 05:48:51;;;;;;;11.35;7.68;;;;;;;27.76;47.15;99627.28;129841;1093;23296;-57
2021/08/09 05:51:20;;;;;;;13.03;8.25;;;;;;;27.86;47.74;99631.45;129632;1092;113967;-57
2021/08/09 05:53:49;;;;;;;11.45;8.15;;;;;;;27.99;47.50;99635.73;129769;1092;23582;-57
2021/08/09 05:56:18;;;;;;;16.08;8.90;;;;;;;28.07;46.98;99640.27;129710;1093;113880;-57
2021/08/09 05:58:54;;;;;;;;;;;;;;;27.95;46.42;99634.85;129830;1092;22548;-57
2021/08/09 06:01:24;;;;;;;17.43;9.28;;;;;;;27.76;47.13;99639.30;129785;1092;21242;-57
2021/08/09 06:03:53;;;;;;;14.88;8.03;;;;;;;27.63;47.72;99637.83;129691;1093;113980;-57
2021/08/09 06:06:23;;;;;;;14.38;8.20;;;;;;;27.44;46.89;99641.41;129724;1093;22583;-57
2021/08/09 06:08:58;;;;;;;12.50;7.63;;;;;;;27.16;47.17;99646.39;129689;1093;114486;-58
2021/08/09 06:11:27;;;;;;;12.25;6.70;;;;;;;26.97;47.70;99652.78;129782;1092;22519;-57
2021/08/09 06:13:57;;;;;;;17.13;8.58;;;;;;;26.79;47.33;99651.52;129648;1092;114114;-58
2021/08/09 06:16:27;;;;;;;12.03;7.08;;;;;;;26.66;47.05;99658.39;129737;1093;22568;-57
2021/08/09 06:18:58;;;;;;;9.90;7.03;;;;;;;26.52;47.34;99661.64;129749;1093;22593;-58
2021/08/09 06:21:29;;;;;;;11.83;8.00;;;;;;;26.39;47.00;99662.91;129654;1093;115084;-57
2021/08/09 06:23:58;;;;;;;10.65;8.38;;;;;;;26.26;47.74;99662.12;129744;1093;22526;-59
2021/08/09 06:26:35;;;;;;;12.43;8.23;;;;;;;26.17;48.51;99664.28;129679;1093;115521;-59
2021/08/09 06:29:04;;;;;;;15.33;9.00;;;;;;;26.09;47.87;99656.90;129747;1093;22653;-59
2021/08/09 06:31:34;;;;;;;14.00;9.55;;;;;;;26.03;47.97;99658.31;129661;1093;114259;-58
2021/08/09 06:34:03;;;;;;;18.38;10.10;;;;;;;25.99;48.68;99663.80;129743;1093;22576;-62
2021/08/09 06:36:35;;;;;;;13.88;8.23;;;;;;;25.96;48.10;99658.14;129781;1092;22604;-58
2021/08/09 06:39:07;;;;;;;14.03;8.90;;;;;;;25.91;48.60;99659.20;129700;1093;114951;-57
2021/08/09 06:41:37;;;;;;;11.68;7.15;;;;;;;25.87;48.06;99663.87;129743;1093;22560;-59
2021/08/09 06:44:19;;;;;;;9.43;6.33;;;;;;;25.84;48.06;99655.39;129684;1093;113798;-60
2021/08/09 06:46:52;;;;;;;11.15;6.70;;;;;;;25.81;48.79;99664.50;129822;1093;22602;-60
2021/08/09 06:49:21;;;;;;;13.20;6.85;;;;;;;25.79;48.67;99662.06;129758;1093;23057;-60
2021/08/09 06:51:50;;;;;;;10.65;7.35;;;;;;;25.76;48.28;99659.97;129684;1092;114001;-60
2021/08/09 06:54:20;;;;;;;11.20;7.98;;;;;;;25.71;47.94;99651.84;129803;1093;22541;-60
2021/08/09 06:56:50;;;;;;;12.98;7.20;;;;;;;25.67;48.20;99656.53;129655;1093;114009;-60
2021/08/09 06:59:19;;;;;;;9.83;6.10;;;;;;;25.64;48.21;99654.45;129746;1093;22635;-60
2021/08/09 07:01:49;;;;;;;11.28;4.80;;;;;;;25.63;48.07;99658.41;129660;1093;114023;-60
2021/08/09 07:04:18;;;;;;;7.43;3.68;;;;;;;25.60;47.74;99656.28;129758;1093;22544;-60
2021/08/09 07:06:49;;;;;;;13.25;4.38;;;;;;;25.60;47.58;99651.52;129754;1093;22551;-60
2021/08/09 07:09:22;;;;;;;7.28;3.90;;;;;;;25.61;47.34;99664.34;129693;1093;113933;-60
2021/08/09 07:11:51;;;;;;;5.23;3.93;;;;;;;25.66;47.37;99666.08;129508;1093;22531;-60
2021/08/09 07:14:21;;;;;;;6.70;4.08;;;;;;;25.70;47.45;99664.98;129651;1093;114132;-60
2021/08/09 07:16:51;;;;;;;12.23;4.53;;;;;;;25.75;48.20;99668.70;129785;1093;22602;-59
2021/08/09 07:19:20;;;;;;;6.70;4.00;;;;;;;25.78;47.65;99654.84;129733;1092;22538;-58
2021/08/09 07:21:49;;;;;;;6.45;2.95;;;;;;;25.84;47.04;99658.17;129678;1093;113811;-59
2021/08/09 07:24:19;;;;;;;3.20;2.85;;;;;;;25.88;46.92;99657.12;129791;1093;22560;-59
2021/08/09 07:26:49;;;;;;;4.10;2.70;;;;;;;25.94;45.48;99666.06;129623;1093;114304;-59
2021/08/09 07:29:18;;;;;;;3.80;2.55;;;;;;;25.99;44.93;99658.22;129803;1092;22632;-59
2021/08/09 07:31:46;;;;;;;3.88;2.70;;;;;;;25.99;44.25;99658.22;129683;1092;113906;-59
2021/08/09 07:34:15;;;;;;;7.20;2.78;;;;;;;25.98;43.75;99650.19;129752;1093;22629;-59
2021/08/09 07:36:44;;;;;;;5.30;3.00;;;;;;;25.94;43.98;99647.33;129785;1096;22577;-59
2021/08/09 07:39:13;;;;;;;4.68;2.85;;;;;;;25.90;44.68;99656.77;129687;1093;113482;-59
2021/08/09 07:41:43;;;;;;;2.83;2.43;;;;;;;25.87;43.28;99665.84;129775;1093;22694;-59
2021/08/09 07:44:12;;;;;;;4.53;2.50;;;;;;;25.87;43.49;99668.64;129665;1093;113958;-59
2021/08/09 07:46:42;;;;;;;3.08;2.40;;;;;;;25.87;42.96;99661.08;129736;1093;23453;-59
2021/08/09 07:49:11;;;;;;;7.33;3.30;;;;;;;25.89;43.94;99669.91;129762;1093;23103;-59
2021/08/09 07:51:40;;;;;;;4.68;2.20;;;;;;;25.91;43.44;99666.77;129669;1093;113906;-59
2021/08/09 07:54:09;;;;;;;3.25;1.88;;;;;;;25.94;43.43;99666.06;129814;1092;22572;-59
2021/08/09 07:56:38;;;;;;;3.48;2.48;;;;;;;25.99;42.78;99658.22;129698;1093;113828;-59
2021/08/09 07:59:09;;;;;;;3.50;2.50;;;;;;;26.03;43.25;99655.53;129741;1093;22564;-59
2021/08/09 08:01:38;;;;;;;3.63;2.28;;;;;;;26.06;43.93;99664.00;129658;1093;114174;-59
2021/08/09 08:04:07;;;;;;;4.10;2.23;;;;;;;26.11;42.99;99678.89;129796;1093;23234;-58
2021/08/09 08:06:38;;;;;;;4.63;2.20;;;;;;;26.12;41.48;99672.10;129727;1093;22591;-58
2021/08/09 08:09:07;;;;;;;2.88;2.08;;;;;;;26.11;42.34;99671.32;129671;1092;114071;-58
2021/08/09 08:11:36;;;;;;;5.50;2.50;;;;;;;26.13;42.91;99673.73;129768;1093;22584;-58
2021/08/09 08:14:05;;;;;;;3.98;2.83;;;;;;;26.14;41.94;99678.14;129669;1093;114157;-59
2021/08/09 08:16:34;;;;;;;2.70;2.23;;;;;;;26.15;41.45;99679.77;129718;1093;22586;-59
2021/08/09 08:19:24;;;;;;;3.00;2.35;;;;;;;26.16;41.38;99684.19;129798;1093;22545;-59
2021/08/09 08:21:53;;;;;;;4.38;2.30;;;;;;;26.17;41.48;99686.63;129680;1092;113458;-59
2021/08/09 08:24:23;;;;;;;3.35;2.48;;;;;;;26.19;41.43;99680.69;129790;1093;22761;-59
2021/08/09 08:26:52;;;;;;;3.25;2.20;;;;;;;26.19;41.33;99684.30;129705;1093;113825;-59
2021/08/09 08:29:24;;;;;;;5.03;3.00;;;;;;;26.18;41.81;99682.67;129784;1093;24062;-58
2021/08/09 08:31:53;;;;;;;8.78;2.88;;;;;;;26.21;42.38;99689.52;129665;1092;114709;-58
2021/08/09 08:34:22;;;;;;;3.43;2.50;;;;;;;26.22;42.25;99689.17;129772;1093;23403;-59
2021/08/09 08:36:52;;;;;;;3.13;2.80;;;;;;;26.25;42.02;99694.05;129770;1093;22590;-59
2021/08/09 08:39:23;;;;;;;5.23;2.30;;;;;;;26.27;41.76;99690.87;129675;1093;113759;-59
2021/08/09 08:41:53;;;;;;;5.05;2.75;;;;;;;26.29;41.70;99683.79;129818;1093;22513;-59
2021/08/09 08:44:23;;;;;;;4.90;2.65;;;;;;;26.30;41.81;99682.62;129682;1092;113951;-58
2021/08/09 08:46:54;;;;;;;5.05;2.48;;;;;;;26.32;42.41;99680.28;129759;1093;22565;-58
2021/08/09 08:49:25;;;;;;;4.03;2.63;;;;;;;26.34;42.21;99689.12;129817;1093;22637;-59
2021/08/09 08:51:55;;;;;;;5.88;3.20;;;;;;;26.36;41.88;99683.98;129647;1093;113590;-59
2021/08/09 08:54:24;;;;;;;5.58;2.60;;;;;;;26.37;42.17;99677.23;129761;1093;23686;-59
2021/08/09 08:56:53;;;;;;;4.15;2.65;;;;;;;26.38;41.81;99676.06;129701;1092;113790;-59
2021/08/09 08:59:22;;;;;;;2.73;2.53;;;;;;;26.37;41.20;99677.23;129823;1093;22695;-59
2021/08/09 09:01:51;;;;;;;3.43;2.83;;;;;;;26.39;42.74;99686.07;129663;1092;113850;-59
2021/08/09 09:04:24;;;;;;;5.28;2.80;;;;;;;26.44;42.84;99682.17;129817;1093;23068;-59
2021/08/09 09:07:06;;;;;;;6.98;2.83;;;;;;;26.48;42.72;99680.30;129840;1093;22600;-59
2021/08/09 09:09:40;;;;;;;5.25;2.73;;;;;;;26.49;42.36;99672.72;129673;1093;114769;-59
2021/08/09 09:12:17;;;;;;;2.93;2.70;;;;;;;26.52;42.20;99683.19;129811;1093;22629;-59
2021/08/09 09:15:06;;;;;;;4.00;3.40;;;;;;;26.54;41.80;99678.86;129745;1092;113779;-59
2021/08/09 09:17:37;;;;;;;4.53;2.78;;;;;;;26.53;42.06;99696.80;129828;1093;22550;-60
2021/08/09 09:20:27;;;;;;;3.03;2.73;;;;;;;26.55;41.93;99697.23;129697;1092;114006;-59
2021/08/09 09:23:32;;;;;;;4.78;3.30;;;;;;;26.61;42.13;99692.19;129825;1092;22627;-59
2021/08/09 09:26:01;;;;;;;4.20;3.23;;;;;;;26.68;42.18;99690.40;129230;1097;113332;-59
2021/08/09 09:28:33;;;;;;;3.48;3.08;;;;;;;26.72;41.28;99693.26;129344;1096;22565;-59
2021/08/09 09:31:07;;;;;;;4.98;3.48;;;;;;;26.75;41.66;99690.56;129402;1096;22550;-59
2021/08/09 09:33:35;;;;;;;6.78;3.13;;;;;;;26.77;42.08;99690.20;129241;1096;114250;-59
2021/08/09 09:36:05;;;;;;;4.38;3.48;;;;;;;26.81;43.31;99693.91;129370;1096;22782;-58
2021/08/09 09:38:44;;;;;;;8.85;4.03;;;;;;;26.84;43.01;99678.36;129243;1095;113848;-59
2021/08/09 09:41:12;;;;;;;5.53;4.03;;;;;;;26.87;43.57;99672.86;129357;1096;22618;-58
2021/08/09 09:43:43;;;;;;;5.00;3.95;;;;;;;26.93;44.13;99673.41;129245;1097;113972;-59
2021/08/09 09:46:23;;;;;;;5.80;3.38;;;;;;;27.01;42.91;99667.63;129345;1095;22632;-59
2021/08/09 09:49:00;;;;;;;5.68;3.83;;;;;;;27.07;42.20;99657.80;129339;1096;22569;-59
2021/08/09 09:51:30;;;;;;;5.03;3.87;;;;;;;27.12;42.44;99655.90;129250;1096;114282;-59
2021/08/09 09:54:07;;;;;;;5.43;4.08;;;;;;;27.13;43.09;99660.29;129326;1096;22585;-59
2021/08/09 09:56:37;;;;;;;7.28;4.03;;;;;;;27.15;42.85;99660.73;129267;1096;113760;-58
2021/08/09 09:59:06;;;;;;;6.85;4.15;;;;;;;27.18;43.62;99669.22;129383;1096;22683;-59
2021/08/09 10:01:38;;;;;;;14.43;4.53;;;;;;;27.21;44.10;99673.28;129604;1093;113256;-59
2021/08/09 10:04:06;;;;;;;4.35;3.80;;;;;;;27.27;43.62;99671.83;129764;1093;22604;-59
2021/08/09 10:06:35;;;;;;;5.65;3.65;;;;;;;27.29;43.15;99672.25;129764;1093;22530;-59
2021/08/09 10:09:06;;;;;;;5.05;3.48;;;;;;;27.30;42.08;99660.69;129706;1093;113997;-58
2021/08/09 10:11:41;;;;;;;7.55;3.65;;;;;;;27.33;42.54;99664.75;129817;1092;22667;-58
2021/08/09 10:14:11;;;;;;;5.45;3.65;;;;;;;27.35;41.62;99657.61;129738;1093;113597;-58
2021/08/09 10:16:52;;;;;;;6.85;4.05;;;;;;;27.36;41.59;99662.03;129847;1093;22569;-58
2021/08/09 10:19:40;;;;;;;6.10;4.10;;;;;;;27.39;42.00;99671.69;129671;1093;113703;-60
2021/08/09 10:22:09;;;;;;;5.23;3.88;;;;;;;27.40;42.08;99674.13;129813;1093;22550;-59
2021/08/09 10:24:57;;;;;;;;;;;;;;;27.44;41.97;99662.98;129825;1093;22588;-59
2021/08/09 10:27:52;;;;;;;3.50;3.20;;;;;;;27.43;40.97;99653.78;129689;1093;101187;-59
2021/08/09 10:30:22;;;;;;;5.58;3.55;;;;;;;27.47;41.86;99637.06;129751;1093;22588;-59
2021/08/09 10:32:57;;;;;;;9.93;4.73;;;;;;;27.50;40.90;99641.13;129698;1092;115684;-59
2021/08/09 10:35:43;;;;;;;5.50;4.20;;;;;;;27.53;41.90;99635.61;129786;1093;22509;-59
2021/08/09 10:38:16;;;;;;;4.85;3.28;;;;;;;27.56;40.88;99628.44;129655;1093;114962;-59
2021/08/09 10:40:46;;;;;;;5.78;4.20;;;;;;;27.58;40.77;99634.52;126772;1093;24593;-58
2021/08/09 10:43:15;;;;;;;5.43;4.20;;;;;;;27.59;40.33;99642.54;125310;1092;25878;-59
2021/08/09 10:45:45;;;;;;;5.63;3.35;;;;;;;27.63;40.55;99642.63;129539;1093;113914;-60
2021/08/09 10:48:16;;;;;;;6.65;3.45;;;;;;;27.67;40.20;99632.31;129794;1093;23325;-60
2021/08/09 10:50:45;;;;;;;3.50;3.20;;;;;;;27.70;40.57;99634.38;129685;1092;114296;-59
2021/08/09 10:53:28;;;;;;;8.95;4.33;;;;;;;27.71;40.33;99625.59;129777;1093;22664;-60
2021/08/09 10:55:57;;;;;;;6.00;4.50;;;;;;;27.73;40.58;99626.03;129694;1093;113966;-59
2021/08/09 10:58:42;;;;;;;7.73;4.08;;;;;;;27.73;40.77;99620.43;129742;1094;22547;-60
2021/08/09 11:01:17;;;;;;;6.03;4.40;;;;;;;27.76;41.60;99621.69;129819;1093;23384;-59
2021/08/09 11:04:01;;;;;;;3.78;3.43;;;;;;;27.78;41.42;99616.52;129594;1092;114166;-59
2021/08/09 11:06:53;;;;;;;4.63;3.60;;;;;;;27.84;40.18;99615.05;129812;1093;22589;-60
2021/08/09 11:09:35;;;;;;;3.68;3.00;;;;;;;27.88;40.14;99601.91;129682;1093;113995;-59
2021/08/09 11:12:10;;;;;;;6.10;3.78;;;;;;;27.91;39.10;99597.56;129793;1093;23445;-59
2021/08/09 11:15:10;;;;;;;5.48;3.10;;;;;;;27.96;38.96;99594.46;129685;1093;113073;-60
2021/08/09 11:17:57;;;;;;;6.30;3.33;;;;;;;27.97;38.90;99591.30;129804;1093;22756;-59
2021/08/09 11:20:43;;;;;;;3.85;3.30;;;;;;;28.00;38.66;99593.32;129693;1092;114098;-60
2021/08/09 11:23:15;;;;;;;3.15;2.80;;;;;;;28.05;38.90;99583.81;129786;1092;22545;-60
2021/08/09 11:25:48;;;;;;;6.23;3.25;;;;;;;28.10;38.71;99586.31;129688;1093;114887;-59
2021/08/09 11:28:18;;;;;;;3.45;3.15;;;;;;;28.15;38.03;99585.98;129770;1092;23158;-59
2021/08/09 11:30:54;;;;;;;5.20;3.13;;;;;;;28.14;39.01;99582.37;129844;1093;22644;-60
2021/08/09 11:33:34;;;;;;;6.43;2.83;;;;;;;28.16;39.03;99585.61;129679;1091;113799;-59
2021/08/09 11:36:10;;;;;;;3.63;3.23;;;;;;;28.15;38.56;99578.38;129781;1093;22559;-60
2021/08/09 11:38:49;;;;;;;6.43;2.63;;;;;;;28.18;38.99;99581.63;129694;1093;113788;-59
2021/08/09 11:41:19;;;;;;;3.48;2.63;;;;;;;28.20;39.34;99580.10;129804;1092;22592;-60